Peter Mac — WDC9573 — position and weather

sailwx.info

Track history (hours):
 
Tides and Currents Weather Stations Pressure Air Temp Water Temp Dewpoint Dewpoint Depression Visibility Wind Speed Wind Dir Waves Ship Positions

Peter Mac

Owner: So Cal Ship Services inc., TERMINAL ISLAND, CA. More information available from US FCC via Universal Licensing System and Coast Guard Vessel Documentation Center.

Last reported at 2017-Sep-22 00:17 UTC. Time now 2017-Sep-23 16:31 UTC.
Position N 33°44' W 118°16'.

Length 27 m.

Type: Other ship. MMSI: 367104080.

Date/timePositionNaut miles runAvg speedWind from/ knotsBaromVisibWave heightAir tempDewpointWater temp
2017-Sep-22 00:17N 33°44' W 118°16'2 5.7
2017-Sep-21 23:56N 33°43' W 118°15'1013.8
2017-Sep-21 23:11N 33°40' W 118°03'312.7
2017-Sep-21 22:55N 33°42' W 118°05'3 1.5
2017-Sep-21 20:42N 33°40' W 118°03'5 2.5
2017-Sep-21 18:40N 33°44' W 118°06'1 4.8
2017-Sep-21 18:29N 33°43' W 118°06'2 3.1
2017-Sep-21 17:55N 33°42' W 118°07'614.4
2017-Sep-21 17:30N 33°43' W 118°14'2 4.3
2017-Sep-21 17:00N 33°44' W 118°16'0 0.2
2017-Sep-21 16:24N 33°44' W 118°16'1 2.9
2017-Sep-21 16:00N 33°43' W 118°16'9 3.0
2017-Sep-21 13:09N 33°43' W 118°05'2 4.2
2017-Sep-21 12:41N 33°44' W 118°07'312.9
2017-Sep-21 12:28N 33°44' W 118°11'5 9.2
2017-Sep-21 11:57N 33°44' W 118°16'0 0.0
2017-Sep-21 00:39N 33°44' W 118°16'0 0.0
2017-Sep-21 00:30N 33°44' W 118°16'0 1.0
2017-Sep-21 00:00N 33°44' W 118°16'1214.7
2017-Sep-20 23:11N 33°40' W 118°03'313.9
2017-Sep-20 23:00N 33°42' W 118°05'3 2.0
2017-Sep-20 21:44N 33°40' W 118°03'0 0.2
2017-Sep-20 21:26N 33°40' W 118°03'512.6
2017-Sep-20 21:01N 33°44' W 118°06'510.7
2017-Sep-20 20:30N 33°40' W 118°03'0 0.0
2017-Sep-20 19:59N 33°40' W 118°03'0 0.0
2017-Sep-20 19:29N 33°40' W 118°03'0 0.0
2017-Sep-20 18:59N 33°40' W 118°03'511.2
2017-Sep-20 18:30N 33°44' W 118°06'510.2
2017-Sep-20 17:59N 33°40' W 118°03'0 0.0
2017-Sep-20 17:01N 33°40' W 118°03'0 0.0
2017-Sep-20 17:00N 33°40' W 118°03'0 0.0
2017-Sep-20 16:30N 33°40' W 118°03'0 0.0
2017-Sep-20 15:34N 33°40' W 118°03'3 1.3
2017-Sep-20 13:10N 33°42' W 118°05'3 1.3
2017-Sep-20 10:43N 33°40' W 118°03'6 6.9
2017-Sep-20 09:51N 33°44' W 118°08'514.1
2017-Sep-20 09:28N 33°43' W 118°14'2 4.3
2017-Sep-20 09:00N 33°44' W 118°16'2 3.4
2017-Sep-20 08:25N 33°43' W 118°14'710.6
2017-Sep-20 07:47N 33°44' W 118°07'512.8
2017-Sep-20 07:22N 33°40' W 118°03'0 0.1
2017-Sep-20 06:55N 33°40' W 118°03'0 0.0
2017-Sep-20 06:22N 33°40' W 118°03'5 1.3
2017-Sep-20 02:35N 33°44' W 118°06'0 3.0
2017-Sep-20 02:25N 33°44' W 118°06'1 0.8
2017-Sep-20 01:07N 33°43' W 118°06'1 2.0
2017-Sep-20 00:34N 33°44' W 118°06'0 5.9
2017-Sep-20 00:29N 33°44' W 118°07'511.0
2017-Sep-20 00:00N 33°43' W 118°13'2 3.3
2017-Sep-19 23:19N 33°43' W 118°16'514.7
2017-Sep-19 23:00N 33°44' W 118°11'810.1
2017-Sep-19 22:14N 33°40' W 118°03'311.7
2017-Sep-19 21:58N 33°42' W 118°05'1 1.9
2017-Sep-19 21:30N 33°42' W 118°05'2 2.3
2017-Sep-19 20:48N 33°43' W 118°06'0 0.5
2017-Sep-19 20:27N 33°43' W 118°06'1 1.9
2017-Sep-19 19:47N 33°44' W 118°06'0 1.1
2017-Sep-19 19:26N 33°44' W 118°07'512.3
2017-Sep-19 19:00N 33°40' W 118°03'0 0.1
2017-Sep-19 18:29N 33°40' W 118°03'0 0.0
2017-Sep-19 17:54N 33°40' W 118°03'0 0.1
2017-Sep-19 17:27N 33°40' W 118°03'12 0.9
2017-Sep-19 04:03N 33°44' W 118°16'0 0.6
2017-Sep-19 03:55N 33°44' W 118°16'8 6.3
2017-Sep-19 02:36N 33°43' W 118°06'214.7
2017-Sep-19 02:27N 33°42' W 118°05'3 2.9
2017-Sep-19 01:34N 33°40' W 118°03'414.0
2017-Sep-19 01:17N 33°43' W 118°06'1 1.5
2017-Sep-19 00:25N 33°44' W 118°07'510.9
2017-Sep-18 23:56N 33°40' W 118°03'5 7.2
2017-Sep-18 23:16N 33°43' W 118°07'0 0.0
2017-Sep-18 23:00N 33°43' W 118°07'0 0.0
2017-Sep-18 22:28N 33°43' W 118°07'2 4.7
2017-Sep-18 21:57N 33°42' W 118°05'2 5.3
2017-Sep-18 21:31N 33°40' W 118°03'0 0.0
2017-Sep-18 20:59N 33°40' W 118°03'0 0.0
2017-Sep-18 20:30N 33°40' W 118°03'0 0.0
2017-Sep-18 20:00N 33°40' W 118°03'5 7.0
2017-Sep-18 19:13N 33°44' W 118°06'0 2.0
2017-Sep-18 19:00N 33°44' W 118°06'510.2
2017-Sep-18 18:30N 33°40' W 118°03'0 0.0
2017-Sep-18 17:55N 33°40' W 118°03'0 0.0
2017-Sep-18 17:24N 33°40' W 118°03'511.0
2017-Sep-18 16:55N 33°44' W 118°06'4 9.4
2017-Sep-18 16:27N 33°40' W 118°04'1 1.8
2017-Sep-18 15:54N 33°40' W 118°03'0 0.0
2017-Sep-18 14:26N 33°40' W 118°03'3 5.2
2017-Sep-18 13:46N 33°42' W 118°05'2 2.9
2017-Sep-18 13:07N 33°44' W 118°07'113.0
2017-Sep-18 13:00N 33°44' W 118°08'  
2017-Sep-15 01:07N 33°44' W 118°16'0 0.0
2017-Sep-15 00:59N 33°44' W 118°16'1 2.2
2017-Sep-15 00:30N 33°43' W 118°16'814.7
2017-Sep-14 23:59N 33°44' W 118°07'511.4
2017-Sep-14 23:30N 33°40' W 118°03'4 7.3
2017-Sep-14 23:00N 33°43' W 118°06'3 5.0
2017-Sep-14 22:29N 33°41' W 118°04'1 2.1
2017-Sep-14 21:58N 33°40' W 118°03'0 0.0
2017-Sep-14 21:29N 33°40' W 118°03'0 0.0
2017-Sep-14 21:00N 33°40' W 118°03'0 0.0
2017-Sep-14 20:30N 33°40' W 118°03'0 0.0
2017-Sep-14 20:01N 33°40' W 118°03'0 0.0
2017-Sep-14 19:30N 33°40' W 118°03'0 0.0
2017-Sep-14 19:00N 33°40' W 118°03'1 1.8
2017-Sep-14 18:30N 33°40' W 118°04'714.7
2017-Sep-14 18:00N 33°44' W 118°12'4 7.9
2017-Sep-14 17:30N 33°44' W 118°16'0 0.0
2017-Sep-14 17:00N 33°44' W 118°16'0 0.6
2017-Sep-14 16:28N 33°44' W 118°16'612.4
2017-Sep-14 16:00N 33°44' W 118°09'610.9
2017-Sep-14 15:28N 33°41' W 118°04'1 0.5
2017-Sep-14 13:24N 33°40' W 118°03'511.4
2017-Sep-14 12:55N 33°44' W 118°07'716.8
2017-Sep-14 12:29N 33°43' W 118°16'1 0.1
2017-Sep-13 23:31N 33°44' W 118°16'0 0.0
2017-Sep-13 23:30N 33°44' W 118°16'4 8.6
2017-Sep-13 23:00N 33°44' W 118°11'611.5
2017-Sep-13 22:30N 33°42' W 118°05'3 5.0
2017-Sep-13 22:00N 33°40' W 118°03'2 4.9
2017-Sep-13 21:30N 33°42' W 118°04'1 1.5
2017-Sep-13 21:00N 33°41' W 118°04'4 8.0
2017-Sep-13 20:30N 33°42' W 118°09'612.6
2017-Sep-13 20:00N 33°44' W 118°16'0 0.5
2017-Sep-13 19:30N 33°44' W 118°16'0 0.3
2017-Sep-13 18:59N 33°44' W 118°16'4 7.5
2017-Sep-13 18:30N 33°44' W 118°12'611.7
2017-Sep-13 18:00N 33°42' W 118°05'3 6.3
2017-Sep-13 17:30N 33°40' W 118°03'0 0.0
2017-Sep-13 17:00N 33°40' W 118°03'0 0.0
2017-Sep-13 16:29N 33°40' W 118°03'0 0.0
2017-Sep-13 15:56N 33°40' W 118°03'0 0.0
2017-Sep-13 15:30N 33°40' W 118°03'0 0.0
2017-Sep-13 15:00N 33°40' W 118°03'2 2.9
2017-Sep-13 14:16N 33°41' W 118°04'312.1
2017-Sep-13 14:00N 33°44' W 118°07'4 6.1
2017-Sep-13 13:23N 33°41' W 118°04'4 9.5
2017-Sep-13 13:00N 33°44' W 118°07'715.0
2017-Sep-13 12:30N 33°43' W 118°15'1 2.7
2017-Sep-13 12:00N 33°44' W 118°16'0 0.0
2017-Sep-12 23:38N 33°44' W 118°16'0 0.1
2017-Sep-12 23:30N 33°44' W 118°16'5 9.1
2017-Sep-12 23:01N 33°44' W 118°11'510.5
2017-Sep-12 22:30N 33°42' W 118°05'3 5.8
2017-Sep-12 22:00N 33°40' W 118°03'0 0.0
2017-Sep-12 21:30N 33°40' W 118°03'0 0.0
2017-Sep-12 21:00N 33°40' W 118°03'0 0.0
2017-Sep-12 20:30N 33°40' W 118°03'0 0.0
2017-Sep-12 20:00N 33°40' W 118°03'0 0.0
2017-Sep-12 19:30N 33°40' W 118°03'0 0.0
2017-Sep-12 19:00N 33°40' W 118°03'1 2.5
2017-Sep-12 18:30N 33°41' W 118°04'2 4.5
2017-Sep-12 18:00N 33°42' W 118°05'3 7.0
2017-Sep-12 17:30N 33°40' W 118°03'0 0.0
2017-Sep-12 17:00N 33°40' W 118°03'0 0.0
2017-Sep-12 16:30N 33°40' W 118°03'0 0.0
2017-Sep-12 16:00N 33°40' W 118°03'0 0.0
2017-Sep-12 15:30N 33°40' W 118°03'0 0.0
2017-Sep-12 15:00N 33°40' W 118°03'0 0.1
2017-Sep-12 14:19N 33°40' W 118°03'515.1
2017-Sep-12 14:00N 33°43' W 118°06'5 9.2
2017-Sep-12 13:30N 33°40' W 118°03'510.4
2017-Sep-12 13:01N 33°44' W 118°06'4 8.4
2017-Sep-12 12:30N 33°44' W 118°12'4 7.8
2017-Sep-12 12:00N 33°44' W 118°16'  
Track history (hours):
 
Tides and Currents Weather Stations Pressure Air Temp Water Temp Dewpoint Dewpoint Depression Visibility Wind Speed Wind Dir Waves Ship Positions

Peter Mac

Owner: So Cal Ship Services inc., TERMINAL ISLAND, CA. More information available from US FCC via Universal Licensing System and Coast Guard Vessel Documentation Center.

Last reported at 2017-Sep-22 00:17 UTC. Time now 2017-Sep-23 16:31 UTC.
Position N 33°44' W 118°16'.

Length 27 m.

Type: Other ship. MMSI: 367104080.

Date/timePositionNaut miles runAvg speedWind from/ knotsBaromVisibWave heightAir tempDewpointWater temp
2017-Sep-22 00:17N 33°44' W 118°16'2 5.7
2017-Sep-21 23:56N 33°43' W 118°15'1013.8
2017-Sep-21 23:11N 33°40' W 118°03'312.7
2017-Sep-21 22:55N 33°42' W 118°05'3 1.5
2017-Sep-21 20:42N 33°40' W 118°03'5 2.5
2017-Sep-21 18:40N 33°44' W 118°06'1 4.8
2017-Sep-21 18:29N 33°43' W 118°06'2 3.1
2017-Sep-21 17:55N 33°42' W 118°07'614.4
2017-Sep-21 17:30N 33°43' W 118°14'2 4.3
2017-Sep-21 17:00N 33°44' W 118°16'0 0.2
2017-Sep-21 16:24N 33°44' W 118°16'1 2.9
2017-Sep-21 16:00N 33°43' W 118°16'9 3.0
2017-Sep-21 13:09N 33°43' W 118°05'2 4.2
2017-Sep-21 12:41N 33°44' W 118°07'312.9
2017-Sep-21 12:28N 33°44' W 118°11'5 9.2
2017-Sep-21 11:57N 33°44' W 118°16'0 0.0
2017-Sep-21 00:39N 33°44' W 118°16'0 0.0
2017-Sep-21 00:30N 33°44' W 118°16'0 1.0
2017-Sep-21 00:00N 33°44' W 118°16'1214.7
2017-Sep-20 23:11N 33°40' W 118°03'313.9
2017-Sep-20 23:00N 33°42' W 118°05'3 2.0
2017-Sep-20 21:44N 33°40' W 118°03'0 0.2
2017-Sep-20 21:26N 33°40' W 118°03'512.6
2017-Sep-20 21:01N 33°44' W 118°06'510.7
2017-Sep-20 20:30N 33°40' W 118°03'0 0.0
2017-Sep-20 19:59N 33°40' W 118°03'0 0.0
2017-Sep-20 19:29N 33°40' W 118°03'0 0.0
2017-Sep-20 18:59N 33°40' W 118°03'511.2
2017-Sep-20 18:30N 33°44' W 118°06'510.2
2017-Sep-20 17:59N 33°40' W 118°03'0 0.0
2017-Sep-20 17:01N 33°40' W 118°03'0 0.0
2017-Sep-20 17:00N 33°40' W 118°03'0 0.0
2017-Sep-20 16:30N 33°40' W 118°03'0 0.0
2017-Sep-20 15:34N 33°40' W 118°03'3 1.3
2017-Sep-20 13:10N 33°42' W 118°05'3 1.3
2017-Sep-20 10:43N 33°40' W 118°03'6 6.9
2017-Sep-20 09:51N 33°44' W 118°08'514.1
2017-Sep-20 09:28N 33°43' W 118°14'2 4.3
2017-Sep-20 09:00N 33°44' W 118°16'2 3.4
2017-Sep-20 08:25N 33°43' W 118°14'710.6
2017-Sep-20 07:47N 33°44' W 118°07'512.8
2017-Sep-20 07:22N 33°40' W 118°03'0 0.1
2017-Sep-20 06:55N 33°40' W 118°03'0 0.0
2017-Sep-20 06:22N 33°40' W 118°03'5 1.3
2017-Sep-20 02:35N 33°44' W 118°06'0 3.0
2017-Sep-20 02:25N 33°44' W 118°06'1 0.8
2017-Sep-20 01:07N 33°43' W 118°06'1 2.0
2017-Sep-20 00:34N 33°44' W 118°06'0 5.9
2017-Sep-20 00:29N 33°44' W 118°07'511.0
2017-Sep-20 00:00N 33°43' W 118°13'2 3.3
2017-Sep-19 23:19N 33°43' W 118°16'514.7
2017-Sep-19 23:00N 33°44' W 118°11'810.1
2017-Sep-19 22:14N 33°40' W 118°03'311.7
2017-Sep-19 21:58N 33°42' W 118°05'1 1.9
2017-Sep-19 21:30N 33°42' W 118°05'2 2.3
2017-Sep-19 20:48N 33°43' W 118°06'0 0.5
2017-Sep-19 20:27N 33°43' W 118°06'1 1.9
2017-Sep-19 19:47N 33°44' W 118°06'0 1.1
2017-Sep-19 19:26N 33°44' W 118°07'512.3
2017-Sep-19 19:00N 33°40' W 118°03'0 0.1
2017-Sep-19 18:29N 33°40' W 118°03'0 0.0
2017-Sep-19 17:54N 33°40' W 118°03'0 0.1
2017-Sep-19 17:27N 33°40' W 118°03'12 0.9
2017-Sep-19 04:03N 33°44' W 118°16'0 0.6
2017-Sep-19 03:55N 33°44' W 118°16'8 6.3
2017-Sep-19 02:36N 33°43' W 118°06'214.7
2017-Sep-19 02:27N 33°42' W 118°05'3 2.9
2017-Sep-19 01:34N 33°40' W 118°03'414.0
2017-Sep-19 01:17N 33°43' W 118°06'1 1.5
2017-Sep-19 00:25N 33°44' W 118°07'510.9
2017-Sep-18 23:56N 33°40' W 118°03'5 7.2
2017-Sep-18 23:16N 33°43' W 118°07'0 0.0
2017-Sep-18 23:00N 33°43' W 118°07'0 0.0
2017-Sep-18 22:28N 33°43' W 118°07'2 4.7
2017-Sep-18 21:57N 33°42' W 118°05'2 5.3
2017-Sep-18 21:31N 33°40' W 118°03'0 0.0
2017-Sep-18 20:59N 33°40' W 118°03'0 0.0
2017-Sep-18 20:30N 33°40' W 118°03'0 0.0
2017-Sep-18 20:00N 33°40' W 118°03'5 7.0
2017-Sep-18 19:13N 33°44' W 118°06'0 2.0
2017-Sep-18 19:00N 33°44' W 118°06'510.2
2017-Sep-18 18:30N 33°40' W 118°03'0 0.0
2017-Sep-18 17:55N 33°40' W 118°03'0 0.0
2017-Sep-18 17:24N 33°40' W 118°03'511.0
2017-Sep-18 16:55N 33°44' W 118°06'4 9.4
2017-Sep-18 16:27N 33°40' W 118°04'1 1.8
2017-Sep-18 15:54N 33°40' W 118°03'0 0.0
2017-Sep-18 14:26N 33°40' W 118°03'3 5.2
2017-Sep-18 13:46N 33°42' W 118°05'2 2.9
2017-Sep-18 13:07N 33°44' W 118°07'113.0
2017-Sep-18 13:00N 33°44' W 118°08'  
2017-Sep-15 01:07N 33°44' W 118°16'0 0.0
2017-Sep-15 00:59N 33°44' W 118°16'1 2.2
2017-Sep-15 00:30N 33°43' W 118°16'814.7
2017-Sep-14 23:59N 33°44' W 118°07'511.4
2017-Sep-14 23:30N 33°40' W 118°03'4 7.3
2017-Sep-14 23:00N 33°43' W 118°06'3 5.0
2017-Sep-14 22:29N 33°41' W 118°04'1 2.1
2017-Sep-14 21:58N 33°40' W 118°03'0 0.0
2017-Sep-14 21:29N 33°40' W 118°03'0 0.0
2017-Sep-14 21:00N 33°40' W 118°03'0 0.0
2017-Sep-14 20:30N 33°40' W 118°03'0 0.0
2017-Sep-14 20:01N 33°40' W 118°03'0 0.0
2017-Sep-14 19:30N 33°40' W 118°03'0 0.0
2017-Sep-14 19:00N 33°40' W 118°03'1 1.8
2017-Sep-14 18:30N 33°40' W 118°04'714.7
2017-Sep-14 18:00N 33°44' W 118°12'4 7.9
2017-Sep-14 17:30N 33°44' W 118°16'0 0.0
2017-Sep-14 17:00N 33°44' W 118°16'0 0.6
2017-Sep-14 16:28N 33°44' W 118°16'612.4
2017-Sep-14 16:00N 33°44' W 118°09'610.9
2017-Sep-14 15:28N 33°41' W 118°04'1 0.5
2017-Sep-14 13:24N 33°40' W 118°03'511.4
2017-Sep-14 12:55N 33°44' W 118°07'716.8
2017-Sep-14 12:29N 33°43' W 118°16'1 0.1
2017-Sep-13 23:31N 33°44' W 118°16'0 0.0
2017-Sep-13 23:30N 33°44' W 118°16'4 8.6
2017-Sep-13 23:00N 33°44' W 118°11'611.5
2017-Sep-13 22:30N 33°42' W 118°05'3 5.0
2017-Sep-13 22:00N 33°40' W 118°03'2 4.9
2017-Sep-13 21:30N 33°42' W 118°04'1 1.5
2017-Sep-13 21:00N 33°41' W 118°04'4 8.0
2017-Sep-13 20:30N 33°42' W 118°09'612.6
2017-Sep-13 20:00N 33°44' W 118°16'0 0.5
2017-Sep-13 19:30N 33°44' W 118°16'0 0.3
2017-Sep-13 18:59N 33°44' W 118°16'4 7.5
2017-Sep-13 18:30N 33°44' W 118°12'611.7
2017-Sep-13 18:00N 33°42' W 118°05'3 6.3
2017-Sep-13 17:30N 33°40' W 118°03'0 0.0
2017-Sep-13 17:00N 33°40' W 118°03'0 0.0
2017-Sep-13 16:29N 33°40' W 118°03'0 0.0
2017-Sep-13 15:56N 33°40' W 118°03'0 0.0
2017-Sep-13 15:30N 33°40' W 118°03'0 0.0
2017-Sep-13 15:00N 33°40' W 118°03'2 2.9
2017-Sep-13 14:16N 33°41' W 118°04'312.1
2017-Sep-13 14:00N 33°44' W 118°07'4 6.1
2017-Sep-13 13:23N 33°41' W 118°04'4 9.5
2017-Sep-13 13:00N 33°44' W 118°07'715.0
2017-Sep-13 12:30N 33°43' W 118°15'1 2.7
2017-Sep-13 12:00N 33°44' W 118°16'0 0.0
2017-Sep-12 23:38N 33°44' W 118°16'0 0.1
2017-Sep-12 23:30N 33°44' W 118°16'5 9.1
2017-Sep-12 23:01N 33°44' W 118°11'510.5
2017-Sep-12 22:30N 33°42' W 118°05'3 5.8
2017-Sep-12 22:00N 33°40' W 118°03'0 0.0
2017-Sep-12 21:30N 33°40' W 118°03'0 0.0
2017-Sep-12 21:00N 33°40' W 118°03'0 0.0
2017-Sep-12 20:30N 33°40' W 118°03'0 0.0
2017-Sep-12 20:00N 33°40' W 118°03'0 0.0
2017-Sep-12 19:30N 33°40' W 118°03'0 0.0
2017-Sep-12 19:00N 33°40' W 118°03'1 2.5
2017-Sep-12 18:30N 33°41' W 118°04'2 4.5
2017-Sep-12 18:00N 33°42' W 118°05'3 7.0
2017-Sep-12 17:30N 33°40' W 118°03'0 0.0
2017-Sep-12 17:00N 33°40' W 118°03'0 0.0
2017-Sep-12 16:30N 33°40' W 118°03'0 0.0
2017-Sep-12 16:00N 33°40' W 118°03'0 0.0
2017-Sep-12 15:30N 33°40' W 118°03'0 0.0
2017-Sep-12 15:00N 33°40' W 118°03'0 0.1
2017-Sep-12 14:19N 33°40' W 118°03'515.1
2017-Sep-12 14:00N 33°43' W 118°06'5 9.2
2017-Sep-12 13:30N 33°40' W 118°03'510.4
2017-Sep-12 13:01N 33°44' W 118°06'4 8.4
2017-Sep-12 12:30N 33°44' W 118°12'4 7.8
2017-Sep-12 12:00N 33°44' W 118°16'  

Dump ship's entire track history